M I D A S
Marine Information and Data Acquisition System
Tripno 1685 of the Zeeleeuw from 2009-04-30 07:18:56 to 2009-04-30 13:35:03
Back to CruiseResearch ActivitiesStationsMapUnderway DataData graphs

EquipmentUnitsComment
TimeDGPSUTC
LatitudeDGPSDM.mWGS84
LongitudeDGPSDM.mWGS84
TemperatureSBE03/SBE38deg celciusITS90
ConductivitySBE21S/mITS90
SalinitySBE21 Practical Salinity Units
ChlorophylAChelsea fluorimeterg/lCalibrated in Aceton
Missing or incorrect values are displayed as -999
Sea surface data collected by the RV Zeeleeuw from 2009-04-30 07:12:34 to 2009-04-30 13:46:19
Time Latitude Longitude Temperature Conductivity Salinity ChlorophylA
2009-04-30 07:13:41 51°13.671 2°55.925 -999 0.042516 0.215507 -1.070216
2009-04-30 07:14:42 51°13.683 2°55.865 -999 0.042413 0.214975 -1.035392
2009-04-30 07:15:42 51°13.692 2°55.787 -999 0.042722 0.216572 -1.035392
2009-04-30 07:16:41 51°13.698 2°55.758 -999 0.044574 0.226141 -1.035392
2009-04-30 07:17:41 51°13.715 2°55.767 -999 0.042001 0.212847 -1.035392
2009-04-30 07:18:42 51°13.711 2°55.76 -999 0.04478 0.227205 -1.070216
2009-04-30 07:19:42 51°13.774 2°55.69 -999 0.042619 0.216022 -1.035392
2009-04-30 07:20:42 51°13.848 2°55.635 -999 0.043751 0.221876 -1.070216
2009-04-30 07:21:42 51°13.959 2°55.576 -999 0.043236 0.219238 -1.070216
2009-04-30 07:22:42 51°14.075 2°55.471 -999 0.042722 0.216582 -1.035392
2009-04-30 07:23:41 51°14.21 2°55.334 -999 0.042722 0.216592 -1.070216
2009-04-30 07:24:40 51°14.335 2°55.119 -999 0.042516 0.215507 -1.070216
2009-04-30 07:25:39 51°14.433 2°54.845 -999 0.039943 0.202292 -1.070216
2009-04-30 07:26:39 51°14.546 2°54.57 -999 0.040149 0.203391 -1.035392
2009-04-30 07:27:39 51°14.684 2°54.333 -999 0.038708 0.195998 -1.070216
2009-04-30 07:28:39 51°14.86 2°54.175 -999 0.040561 0.205497 -1.070216
2009-04-30 07:29:39 51°15.035 2°54.015 -999 0.040046 0.202901 -1.035392
2009-04-30 07:30:39 51°15.215 2°53.865 -999 0.040869 0.207194 -1.070216
2009-04-30 07:31:39 51°15.394 2°53.716 -999 0.040664 0.206186 -1.035392
2009-04-30 07:32:39 51°15.57 2°53.574 -999 0.040561 0.205661 -1.035392
2009-04-30 07:33:39 51°15.753 2°53.446 -999 0.040767 0.206815 -1.035392
2009-04-30 07:34:39 51°15.939 2°53.319 -999 0.040972 0.207891 -1.035392
2009-04-30 07:35:39 51°16.126 2°53.192 -999 0.040972 0.207842 -1.070216
2009-04-30 07:36:39 51°16.32 2°53.123 -999 0.046632 0.237358 -1.070216
2009-04-30 07:37:39 51°16.518 2°53.133 -999 0.047764 0.243342 -1.070216
2009-04-30 07:38:39 51°16.717 2°53.139 -999 0.048485 0.247156 -1.035392
2009-04-30 07:39:39 51°16.916 2°53.145 -999 0.048896 0.249506 -1.070216
2009-04-30 07:40:39 51°17.114 2°53.15 -999 0.04869 0.248356 -1.035392
2009-04-30 07:41:39 51°17.311 2°53.192 -999 0.047661 0.24302 -1.035392
2009-04-30 07:42:39 51°17.492 2°53.315 -999 0.048896 0.249383 -1.035392
2009-04-30 07:43:39 51°17.663 2°53.474 -999 0.048073 0.245594 -1.035392
2009-04-30 07:44:39 51°17.834 2°53.628 -999 0.049205 0.251394 -1.070216
2009-04-30 07:45:39 51°18.005 2°53.781 -999 0.046426 0.237136 -1.035392
2009-04-30 07:46:39 51°18.172 2°53.943 -999 0.04725 0.241406 -1.035392
2009-04-30 07:47:39 51°18.322 2°54.14 -999 0.047867 0.244675 -1.035392
2009-04-30 07:48:39 51°18.461 2°54.349 -999 0.043957 0.224372 -1.035392
2009-04-30 07:49:39 51°18.56 2°54.604 -999 0.046324 0.23674 -1.035392
2009-04-30 07:50:39 51°18.651 2°54.872 -999 0.046735 0.238966 -1.035392
2009-04-30 07:51:39 51°18.735 2°55.148 -999 0.046118 0.235753 -1.070216
2009-04-30 07:52:39 51°18.815 2°55.424 -999 0.048073 0.245991 -1.070216
2009-04-30 07:53:39 51°18.897 2°55.699 -999 0.047558 0.243258 -1.070216
2009-04-30 07:54:39 51°18.978 2°55.971 -999 0.046221 0.236401 -1.070216
2009-04-30 07:55:39 51°19.053 2°56.249 -999 0.047456 0.24283 -1.035392
2009-04-30 07:56:39 51°19.135 2°56.521 -999 0.046118 0.235922 -1.035392
2009-04-30 07:57:39 51°19.216 2°56.791 -999 0.046735 0.239165 -1.070216
2009-04-30 07:58:39 51°19.297 2°57.063 -999 0.046941 0.240245 -1.070216
2009-04-30 07:59:39 51°19.381 2°57.33 -999 0.047353 0.242492 -1.070216
2009-04-30 08:00:39 51°19.461 2°57.599 -999 0.04725 0.241959 -1.035392
2009-04-30 08:01:39 51°19.54 2°57.866 -999 0.046529 0.238214 -1.070216
2009-04-30 08:02:39 51°19.611 2°58.136 -999 0.047764 0.244746 -1.035392
2009-04-30 08:03:39 51°19.681 2°58.407 -999 0.046632 0.238812 -1.035392
2009-04-30 08:04:39 51°19.752 2°58.68 -999 0.046838 0.239928 -1.070216
2009-04-30 08:05:39 51°19.824 2°58.952 -999 0.047044 0.241013 -1.070216
2009-04-30 08:06:39 51°19.895 2°59.221 -999 0.045295 0.231842 -1.035392
2009-04-30 08:07:39 51°19.966 2°59.488 -999 0.046324 0.237377 -1.035392
2009-04-30 08:08:39 51°20.039 2°59.756 -999 0.046632 0.238996 -1.070216
2009-04-30 08:09:39 51°20.109 3°0.022 -999 0.046838 0.240024 -1.035392
2009-04-30 08:10:39 51°20.176 3°0.292 -999 0.047044 0.241171 -1.035392
2009-04-30 08:11:39 51°20.246 3°0.558 -999 0.046118 0.236414 -1.035392
2009-04-30 08:12:39 51°20.316 3°0.823 -999 0.045295 0.232109 -1.035392
2009-04-30 08:13:39 51°20.385 3°1.088 -999 0.044883 0.229983 -1.070216
2009-04-30 08:14:39 51°20.451 3°1.354 -999 0.046529 0.238616 -1.035392
2009-04-30 08:15:39 51°20.518 3°1.618 -999 0.047044 0.241307 -1.070216
2009-04-30 08:16:39 51°20.584 3°1.884 -999 0.0455 0.233294 -1.070216
2009-04-30 08:17:39 51°20.653 3°2.147 -999 0.046427 0.238159 -1.070216
2009-04-30 08:18:39 51°20.721 3°2.41 -999 0.045912 0.235465 -1.035392
2009-04-30 08:19:39 51°20.786 3°2.673 -999 0.045706 0.234417 -1.035392
2009-04-30 08:20:39 51°20.852 3°2.936 -999 0.0455 0.233373 -1.035392
2009-04-30 08:21:39 51°20.916 3°3.199 -999 0.044986 0.230663 -1.070216
2009-04-30 08:22:39 51°20.98 3°3.466 -999 0.04725 0.242558 -1.035392
2009-04-30 08:23:39 51°21.046 3°3.731 -999 0.045089 0.231288 -1.035392
2009-04-30 08:24:39 51°21.11 3°3.997 -999 0.043648 0.223814 -1.035392
2009-04-30 08:25:39 51°21.172 3°4.264 -999 0.043442 0.22276 -1.070216
2009-04-30 08:26:39 51°21.24 3°4.527 -999 0.045706 0.234567 -1.035392
2009-04-30 08:27:39 51°21.305 3°4.786 -999 0.04406 0.225988 -1.070216
2009-04-30 08:28:39 51°21.368 3°5.048 -999 0.0455 0.233534 -1.035392
2009-04-30 08:29:39 51°21.428 3°5.308 -999 0.044574 0.228737 -1.035392
2009-04-30 08:30:39 51°21.489 3°5.569 -999 0.044677 0.229281 -1.035392
2009-04-30 08:31:39 51°21.553 3°5.826 -999 0.045192 0.231963 -1.070216
2009-04-30 08:32:39 51°21.603 3°6.018 -999 0.04725 0.242812 -1.070216
2009-04-30 08:33:39 51°21.639 3°6.158 -999 0.04972 0.255799 -1.070216
2009-04-30 08:34:39 51°21.685 3°6.323 -999 0.048073 0.24714 -1.070216
2009-04-30 08:35:39 51°21.75 3°6.567 -999 0.044677 0.229321 -1.035392
2009-04-30 08:36:39 51°21.79 3°6.836 -999 0.042619 0.218611 -1.035392
2009-04-30 08:37:39 51°21.804 3°7.108 -999 0.044883 0.230455 -1.035392
2009-04-30 08:38:39 51°21.812 3°7.378 -999 0.045706 0.234763 -1.070216
2009-04-30 08:39:39 51°21.826 3°7.64 -999 0.045089 0.231552 -1.035392
2009-04-30 08:40:39 51°21.845 3°7.899 -999 0.044986 0.231018 -1.070216
2009-04-30 08:41:39 51°21.856 3°8.157 -999 0.044677 0.229362 -1.035392
2009-04-30 08:42:39 51°21.865 3°8.413 -999 0.043751 0.224627 -1.035392
2009-04-30 08:43:39 51°21.85 3°8.595 -999 0.043031 0.22085 -1.035392
2009-04-30 08:44:39 51°21.768 3°8.587 -999 0.039943 0.204819 -1.070216
2009-04-30 08:45:39 51°21.726 3°8.439 -999 0.046529 0.239311 -1.070216
2009-04-30 08:46:39 51°21.722 3°8.313 -999 0.049822 0.256621 -1.070216
2009-04-30 08:47:39 51°21.726 3°8.207 -999 0.049102 0.252831 -1.070216
2009-04-30 08:48:39 51°21.753 3°8.122 -999 0.048793 0.25136 -1.035392
2009-04-30 08:49:39 51°21.798 3°8.086 -999 0.049102 0.253056 -1.070216
2009-04-30 08:50:39 51°21.828 3°8.063 -999 0.050749 0.261625 -1.035392
2009-04-30 08:51:39 51°21.888 3°8.085 -999 0.049411 0.254775 -1.035392
2009-04-30 08:52:39 51°21.936 3°8.117 -999 0.050028 0.257992 -1.035392
2009-04-30 08:53:39 51°21.973 3°8.154 -999 0.050234 0.259135 -1.070216
2009-04-30 08:54:39 51°22.024 3°8.159 -999 0.057952 0.300107 -1.035392
2009-04-30 08:55:39 51°22.084 3°8.088 -999 0.052807 0.272741 -1.035392
2009-04-30 08:56:39 51°22.137 3°8.017 -999 0.052086 0.268968 -1.035392
2009-04-30 08:57:39 51°22.182 3°7.949 -999 0.052807 0.272773 -1.035392
2009-04-30 08:58:39 51°22.224 3°7.885 -999 0.051984 0.268385 -1.035392
2009-04-30 08:59:39 51°22.266 3°7.821 -999 0.051469 0.265817 -1.035392
2009-04-30 09:00:39 51°22.308 3°7.761 -999 0.051881 0.267982 -1.070216
2009-04-30 09:01:39 51°22.351 3°7.703 -999 0.051778 0.267465 -1.035392
2009-04-30 09:02:39 51°22.393 3°7.644 -999 0.051984 0.268547 -1.070216
2009-04-30 09:03:39 51°22.436 3°7.587 -999 0.051675 0.266882 -1.070216
2009-04-30 09:04:39 51°22.479 3°7.531 -999 0.051881 0.268073 -1.070216
2009-04-30 09:05:39 51°22.522 3°7.475 -999 0.051675 0.267104 -1.070216
2009-04-30 09:06:39 51°22.566 3°7.419 -999 0.052189 0.269907 -1.035392
2009-04-30 09:07:39 51°22.611 3°7.363 -999 0.052498 0.271482 -1.035392
2009-04-30 09:08:39 51°22.654 3°7.302 -999 0.051675 0.267147 -1.035392
2009-04-30 09:09:39 51°22.693 3°7.232 -999 0.051881 0.268305 -1.035392
2009-04-30 09:10:39 51°22.724 3°7.149 -999 0.051984 0.268906 -1.035392
2009-04-30 09:11:39 51°22.746 3°7.066 -999 0.052189 0.269925 -1.035392
2009-04-30 09:12:39 51°22.766 3°6.986 -999 0.051057 0.264092 -1.035392
2009-04-30 09:13:39 51°22.785 3°6.908 -999 0.050955 0.263539 -1.035392
2009-04-30 09:14:39 51°22.804 3°6.833 -999 0.051881 0.268406 -1.070216
2009-04-30 09:15:39 51°22.823 3°6.76 -999 0.05116 0.264731 -1.035392
2009-04-30 09:16:39 51°22.843 3°6.685 -999 0.050749 0.26261 -1.035392
2009-04-30 09:17:39 51°22.863 3°6.61 -999 0.050852 0.26318 -1.035392
2009-04-30 09:18:39 51°22.883 3°6.536 -999 0.051263 0.265344 -1.035392
2009-04-30 09:19:39 51°22.903 3°6.462 -999 0.051057 0.264277 -1.070216
2009-04-30 09:20:39 51°22.924 3°6.388 -999 0.051366 0.265984 -1.070216
2009-04-30 09:21:39 51°22.945 3°6.316 -999 0.051366 0.266002 -1.070216
2009-04-30 09:22:39 51°22.966 3°6.244 -999 0.050955 0.263832 -1.035392
2009-04-30 09:23:39 51°22.987 3°6.172 -999 0.051366 0.266024 -1.035392
2009-04-30 09:24:39 51°23.008 3°6.101 -999 0.052601 0.272561 -1.035392
2009-04-30 09:25:39 51°23.03 3°6.034 -999 0.051778 0.268177 -1.035392
2009-04-30 09:26:39 51°23.049 3°5.966 -999 0.052601 0.272654 -1.035392
2009-04-30 09:27:39 51°23.067 3°5.902 -999 0.050131 0.259618 -1.035392
2009-04-30 09:28:39 51°23.089 3°5.853 -999 0.052189 0.270689 -1.070216
2009-04-30 09:29:39 51°23.104 3°5.812 -999 0.051881 0.268995 -1.035392
2009-04-30 09:30:39 51°23.114 3°5.769 -999 0.051881 0.268973 -1.070216
2009-04-30 09:31:39 51°23.121 3°5.725 -999 0.052087 0.270192 -1.070216
2009-04-30 09:32:39 51°23.131 3°5.635 -999 0.06742 0.352273 -1.035392
2009-04-30 09:33:39 51°23.063 3°5.458 -999 0.055791 0.28984 -1.035392
2009-04-30 09:34:39 51°22.959 3°5.17 -999 0.050234 0.260315 -1.070216
2009-04-30 09:35:39 51°22.854 3°4.866 -999 0.05044 0.261516 -1.035392
2009-04-30 09:36:39 51°22.737 3°4.568 -999 0.051778 0.268616 -1.035392
2009-04-30 09:37:39 51°22.617 3°4.275 -999 0.051057 0.264779 -1.035392
2009-04-30 09:38:39 51°22.498 3°3.979 -999 0.048485 0.251228 -1.035392
2009-04-30 09:39:39 51°22.378 3°3.681 -999 0.049102 0.25451 -1.035392
2009-04-30 09:40:39 51°22.258 3°3.383 -999 0.047867 0.247948 -1.070216
2009-04-30 09:41:39 51°22.137 3°3.086 -999 0.047559 0.24637 -1.070216
2009-04-30 09:42:39 51°22.016 3°2.79 -999 0.047456 0.24587 -1.035392
2009-04-30 09:43:39 51°21.895 3°2.495 -999 0.04797 0.248638 -1.035392
2009-04-30 09:44:39 51°21.777 3°2.197 -999 0.050543 0.262233 -1.035392
2009-04-30 09:45:39 51°21.653 3°1.906 -999 0.04725 0.244807 -1.070216
2009-04-30 09:46:39 51°21.528 3°1.615 -999 0.048588 0.251924 -1.035392
2009-04-30 09:47:39 51°21.398 3°1.329 -999 0.048073 0.249202 -1.070216
2009-04-30 09:48:39 51°21.261 3°1.055 -999 0.047867 0.248142 -1.035392
2009-04-30 09:49:39 51°21.126 3°0.779 -999 0.04725 0.244879 -1.035392
2009-04-30 09:50:39 51°20.993 3°0.499 -999 0.046632 0.241634 -1.070216
2009-04-30 09:51:39 51°20.861 3°0.219 -999 0.050028 0.259638 -1.035392
2009-04-30 09:52:39 51°20.731 2°59.931 -999 0.049823 0.258572 -1.035392
2009-04-30 09:53:39 51°20.6 2°59.644 -999 0.046838 0.24278 -1.035392
2009-04-30 09:54:39 51°20.465 2°59.36 -999 0.050234 0.26075 -1.070216
2009-04-30 09:55:39 51°20.322 2°59.086 -999 0.048382 0.250962 -1.070216
2009-04-30 09:56:39 51°20.18 2°58.812 -999 0.047764 0.247695 -1.035392
2009-04-30 09:57:39 51°20.037 2°58.539 -999 0.049102 0.25478 -1.070216
2009-04-30 09:58:39 51°19.9 2°58.259 -999 0.049617 0.257511 -1.035392
2009-04-30 09:59:39 51°19.764 2°57.978 -999 0.049205 0.255342 -1.070216
2009-04-30 10:00:39 51°19.628 2°57.698 -999 0.049823 0.258636 -1.035392
2009-04-30 10:01:39 51°19.49 2°57.419 -999 0.048176 0.249926 -1.070216
2009-04-30 10:02:39 51°19.353 2°57.138 -999 0.049925 0.259207 -1.035392
2009-04-30 10:03:39 51°19.217 2°56.859 -999 0.047559 0.246651 -1.035392
2009-04-30 10:04:39 51°19.081 2°56.579 -999 0.049925 0.259207 -1.035392
2009-04-30 10:05:39 51°18.946 2°56.301 -999 0.049205 0.255392 -1.070216
2009-04-30 10:06:39 51°18.81 2°56.025 -999 0.049411 0.256462 -1.035392
2009-04-30 10:07:39 51°18.674 2°55.75 -999 0.048382 0.251015 -1.035392
2009-04-30 10:08:39 51°18.538 2°55.476 -999 0.048588 0.252155 -1.035392
2009-04-30 10:09:39 51°18.401 2°55.206 -999 0.047764 0.247825 -1.035392
2009-04-30 10:10:39 51°18.277 2°54.92 -999 0.049205 0.255459 -1.035392
2009-04-30 10:11:39 51°18.163 2°54.625 -999 0.050543 0.262525 -1.035392
2009-04-30 10:12:39 51°18.046 2°54.333 -999 0.048896 0.25384 -1.035392
2009-04-30 10:13:39 51°17.928 2°54.046 -999 0.046941 0.243486 -1.035392
2009-04-30 10:14:39 51°17.812 2°53.759 -999 0.05044 0.262086 -1.035392
2009-04-30 10:15:39 51°17.645 2°53.556 -999 0.051675 0.268585 -1.035392
2009-04-30 10:16:39 51°17.444 2°53.45 -999 0.048073 0.249512 -1.070216
2009-04-30 10:17:39 51°17.244 2°53.341 -999 0.044986 0.233202 -1.035392
2009-04-30 10:18:39 51°17.052 2°53.202 -999 0.048793 0.253348 -1.035392
2009-04-30 10:19:39 51°16.86 2°53.077 -999 0.053219 0.276919 -1.035392
2009-04-30 10:20:39 51°16.651 2°53.064 -999 0.050131 0.260435 -1.070216
2009-04-30 10:21:39 51°16.452 2°53.142 -999 0.051572 0.268091 -1.035392
2009-04-30 10:22:39 51°16.252 2°53.223 -999 0.04725 0.245095 -1.070216
2009-04-30 10:23:39 51°16.053 2°53.298 -999 0.048485 0.251931 -1.035392
2009-04-30 10:24:39 51°15.853 2°53.367 -999 0.047764 0.248109 -1.070216
2009-04-30 10:25:39 51°15.655 2°53.446 -999 0.048793 0.253589 -1.035392
2009-04-30 10:26:39 51°15.457 2°53.526 -999 0.045603 0.236692 -1.035392
2009-04-30 10:27:39 51°15.26 2°53.606 -999 0.04653 0.241598 -1.035392
2009-04-30 10:28:39 51°15.064 2°53.69 -999 0.046118 0.239421 -1.035392
2009-04-30 10:29:39 51°14.867 2°53.774 -999 0.046324 0.240497 -1.035392
2009-04-30 10:30:39 51°14.668 2°53.843 -999 0.04653 0.241547 -1.035392
2009-04-30 10:31:39 51°14.464 2°53.831 -999 0.042928 0.222537 -1.035392
2009-04-30 10:32:39 51°14.289 2°53.654 -999 0.045603 0.236654 -1.035392
2009-04-30 10:33:39 51°14.176 2°53.364 -999 0.048999 0.254677 -1.035392
2009-04-30 10:34:39 51°14.079 2°53.052 -999 0.046324 0.240497 -1.035392
2009-04-30 10:35:39 51°13.97 2°52.746 -999 0.0455 0.236137 -1.035392
2009-04-30 10:36:39 51°13.856 2°52.445 -999 0.047867 0.248683 -1.070216
2009-04-30 10:37:39 51°13.741 2°52.146 -999 0.048073 0.24979 -1.035392
2009-04-30 10:38:39 51°13.623 2°51.847 -999 0.048279 0.250864 -1.035392
2009-04-30 10:39:39 51°13.506 2°51.548 -999 0.049411 0.256874 -1.035392
2009-04-30 10:40:39 51°13.386 2°51.251 -999 0.048073 0.249786 -1.035392
2009-04-30 10:41:39 51°13.265 2°50.961 -999 0.045912 0.238336 -1.035392
2009-04-30 10:42:39 51°13.144 2°50.675 -999 0.047662 0.247624 -1.035392
2009-04-30 10:43:39 51°13.031 2°50.377 -999 0.046427 0.241069 -1.035392
2009-04-30 10:44:39 51°12.915 2°50.081 -999 0.044883 0.232962 -1.035392
2009-04-30 10:45:39 51°12.798 2°49.782 -999 0.04725 0.245395 -1.035392
2009-04-30 10:46:39 51°12.68 2°49.479 -999 0.04797 0.249257 -1.035392
2009-04-30 10:47:39 51°12.56 2°49.177 -999 0.044471 0.230751 -1.070216
2009-04-30 10:48:39 51°12.44 2°48.876 -999 0.046221 0.239957 -1.070216
2009-04-30 10:49:39 51°12.318 2°48.577 -999 0.046427 0.241101 -1.035392
2009-04-30 10:50:39 51°12.195 2°48.28 -999 0.046735 0.242743 -1.070216
2009-04-30 10:51:39 51°12.087 2°47.973 -999 0.046118 0.239479 -1.035392
2009-04-30 10:52:39 51°12 2°47.649 -999 0.046221 0.240028 -1.035392
2009-04-30 10:53:39 51°11.918 2°47.317 -999 0.047353 0.246053 -1.035392
2009-04-30 10:54:39 51°11.83 2°46.991 -999 0.046735 0.242759 -1.035392
2009-04-30 10:55:39 51°11.739 2°46.669 -999 0.046632 0.242226 -1.070216
2009-04-30 10:56:39 51°11.65 2°46.346 -999 0.046735 0.242783 -1.035392
2009-04-30 10:57:39 51°11.564 2°46.025 -999 0.046015 0.23899 -1.035392
2009-04-30 10:58:39 51°11.479 2°45.704 -999 0.046838 0.243336 -1.035392
2009-04-30 10:59:39 51°11.404 2°45.378 -999 0.046427 0.241156 -1.070216
2009-04-30 11:00:39 51°11.34 2°45.045 -999 0.04653 0.241733 -1.035392
2009-04-30 11:01:39 51°11.276 2°44.711 -999 0.048588 0.252651 -1.070216
2009-04-30 11:02:39 51°11.201 2°44.382 -999 0.047662 0.247734 -1.035392
2009-04-30 11:03:39 51°11.11 2°44.064 -999 0.046221 0.240075 -1.070216
2009-04-30 11:04:39 51°11.01 2°43.752 -999 0.046735 0.24281 -1.070216
2009-04-30 11:05:39 51°10.911 2°43.441 -999 0.044163 0.229241 -1.035392
2009-04-30 11:06:39 51°10.813 2°43.131 -999 0.04725 0.245588 -1.070216
2009-04-30 11:07:39 51°10.716 2°42.82 -999 0.046015 0.239013 -1.070216
2009-04-30 11:08:39 51°10.614 2°42.515 -999 0.047764 0.248288 -1.035392
2009-04-30 11:09:39 51°10.52 2°42.207 -999 0.046427 0.241207 -1.035392
2009-04-30 11:10:39 51°10.427 2°41.901 -999 0.046838 0.243403 -1.035392
2009-04-30 11:11:39 51°10.336 2°41.595 -999 0.047662 0.247758 -1.070216
2009-04-30 11:12:39 51°10.248 2°41.284 -999 0.045603 0.236847 -1.035392
2009-04-30 11:13:39 51°10.157 2°40.976 -999 0.047867 0.248841 -1.035392
2009-04-30 11:14:39 51°10.065 2°40.671 -999 0.046941 0.243924 -1.035392
2009-04-30 11:15:39 51°9.972 2°40.369 -999 0.046735 0.242858 -1.035392
2009-04-30 11:16:39 51°9.882 2°40.062 -999 0.047044 0.244494 -1.035392
2009-04-30 11:17:39 51°9.795 2°39.754 -999 0.0455 0.236318 -1.035392
2009-04-30 11:18:39 51°9.703 2°39.45 -999 0.045912 0.238461 -1.035392
2009-04-30 11:19:39 51°9.613 2°39.145 -999 0.044266 0.229758 -1.070216
2009-04-30 11:20:39 51°9.52 2°38.843 -999 0.045912 0.238511 -1.070216
2009-04-30 11:21:39 51°9.435 2°38.559 -999 0.048073 0.249999 -1.035392
2009-04-30 11:22:39 51°9.371 2°38.35 -999 0.050028 0.26035 -1.035392
2009-04-30 11:23:39 51°9.327 2°38.212 -999 0.050337 0.262022 -1.035392
2009-04-30 11:24:39 51°9.289 2°38.089 -999 0.050543 0.26316 -1.070216
2009-04-30 11:25:39 51°9.245 2°37.943 -999 0.050337 0.262009 -1.070216
2009-04-30 11:26:39 51°9.197 2°37.789 -999 0.051057 0.265868 -1.035392
2009-04-30 11:27:39 51°9.149 2°37.632 -999 0.050131 0.260914 -1.035392
2009-04-30 11:28:39 51°9.117 2°37.504 -999 0.050852 0.264716 -1.035392
2009-04-30 11:29:39 51°9.106 2°37.406 -999 0.05044 0.262595 -1.035392
2009-04-30 11:30:39 51°9.095 2°37.327 -999 0.05116 0.266407 -1.035392
2009-04-30 11:31:39 51°9.082 2°37.253 -999 0.050543 0.263117 -1.035392
2009-04-30 11:32:39 51°9.069 2°37.167 -999 0.05116 0.266425 -1.035392
2009-04-30 11:33:39 51°9.06 2°37.084 -999 0.051057 0.265872 -1.035392
2009-04-30 11:34:39 51°9.05 2°37.002 -999 0.050955 0.265146 -1.035392
2009-04-30 11:35:39 51°9.04 2°36.921 -999 0.040252 0.208545 -1.035392
2009-04-30 11:36:39 51°9.03 2°36.84 -999 0.040973 0.212382 -1.035392
2009-04-30 11:37:39 51°9.02 2°36.76 -999 0.040458 0.209698 -1.035392
2009-04-30 11:38:39 51°9.011 2°36.68 -999 0.040458 0.209701 -1.035392
2009-04-30 11:39:39 51°9.003 2°36.598 -999 0.039841 0.206478 -1.035392
2009-04-30 11:40:39 51°8.994 2°36.517 -999 0.040355 0.209187 -1.035392
2009-04-30 11:41:39 51°8.985 2°36.436 -999 0.038914 0.201605 -1.035392
2009-04-30 11:42:39 51°8.976 2°36.354 -999 0.039841 0.206491 -1.035392
2009-04-30 11:43:39 51°8.965 2°36.272 -999 0.039223 0.20325 -1.035392
2009-04-30 11:44:39 51°8.954 2°36.189 -999 0.039429 0.204333 -1.035392
2009-04-30 11:45:39 51°8.943 2°36.105 -999 0.038297 0.198375 -1.035392
2009-04-30 11:46:39 51°8.931 2°36.02 -999 0.038297 0.198378 -1.035392
2009-04-30 11:47:39 51°8.92 2°35.935 -999 0.037885 0.196222 -1.035392
2009-04-30 11:48:39 51°8.909 2°35.849 -999 0.038709 0.200532 -1.035392
2009-04-30 11:49:39 51°8.897 2°35.762 -999 0.037885 0.196212 -1.035392
2009-04-30 11:50:39 51°8.884 2°35.676 -999 0.037988 0.19677 -1.035392
2009-04-30 11:51:39 51°8.866 2°35.59 -999 0.037782 0.19567 -1.035392
2009-04-30 11:52:39 51°8.844 2°35.507 -999 0.038503 0.199466 -1.035392
2009-04-30 11:53:39 51°8.822 2°35.426 -999 0.037885 0.196231 -1.035392
2009-04-30 11:54:39 51°8.8 2°35.347 -999 0.038297 0.1984 -1.035392
2009-04-30 11:55:39 51°8.779 2°35.271 -999 0.036856 0.19084 -1.035392
2009-04-30 11:56:39 51°8.758 2°35.196 -999 0.038606 0.199986 -1.035392
2009-04-30 11:57:39 51°8.738 2°35.122 -999 0.0384 0.19892 -1.070216
2009-04-30 11:58:39 51°8.718 2°35.048 -999 0.0384 0.198907 -1.035392
2009-04-30 11:59:39 51°8.697 2°34.975 -999 0.03768 0.195122 -1.035392
2009-04-30 12:00:39 51°8.677 2°34.901 -999 0.038914 0.201618 -1.070216
2009-04-30 12:01:39 51°8.657 2°34.827 -999 0.038091 0.197287 -1.035392
2009-04-30 12:02:39 51°8.638 2°34.755 -999 0.0384 0.198914 -1.035392
2009-04-30 12:03:39 51°8.624 2°34.686 -999 0.038091 0.197274 -1.035392
2009-04-30 12:04:39 51°8.621 2°34.613 -999 0.038606 0.199999 -1.035392
2009-04-30 12:05:39 51°8.625 2°34.553 -999 0.037371 0.193516 -1.035392
2009-04-30 12:06:39 51°8.625 2°34.501 -999 0.036959 0.191338 -1.035392
2009-04-30 12:07:39 51°8.62 2°34.451 -999 0.036033 0.186457 -1.035392
2009-04-30 12:08:39 51°8.612 2°34.402 -999 0.029241 0.151062 -1.035392
2009-04-30 12:09:39 51°8.603 2°34.352 -999 0.037577 0.194602 -1.035392
2009-04-30 12:10:39 51°8.598 2°34.296 -999 0.036548 0.189217 -1.035392
2009-04-30 12:11:39 51°8.639 2°34.27 -999 0.041178 0.213904 -1.070216
2009-04-30 12:12:39 51°8.675 2°34.376 -999 0.036856 0.191106 -1.035392
2009-04-30 12:13:39 51°8.721 2°34.515 -999 0.036239 0.187637 -1.035392
2009-04-30 12:14:39 51°8.767 2°34.665 -999 0.038709 0.200681 -1.035392
2009-04-30 12:15:39 51°8.822 2°34.893 -999 0.037165 0.192603 -1.035392
2009-04-30 12:16:39 51°8.892 2°35.144 -999 0.04159 0.215825 -1.035392
2009-04-30 12:17:39 51°8.959 2°35.402 -999 0.038709 0.2007 -1.035392
2009-04-30 12:18:39 51°9.037 2°35.651 -999 0.035313 0.182909 -1.035392
2009-04-30 12:19:39 51°9.117 2°35.901 -999 0.038914 0.201888 -1.035392
2009-04-30 12:20:39 51°9.192 2°36.157 -999 0.038914 0.201849 -1.035392
2009-04-30 12:21:39 51°9.26 2°36.375 -999 0.037885 0.196642 -1.035392
2009-04-30 12:22:39 51°9.301 2°36.447 -999 0.035313 0.183184 -1.035392
2009-04-30 12:23:39 51°9.337 2°36.468 -999 0.041899 0.217696 -1.035392
2009-04-30 12:24:39 51°9.396 2°36.624 -999 0.038091 0.197793 -1.035392
2009-04-30 12:25:39 51°9.472 2°36.874 -999 0.052704 0.275209 -1.035392
2009-04-30 12:26:39 51°9.534 2°37.14 -999 0.047353 0.246825 -1.035392
2009-04-30 12:27:39 51°9.599 2°37.407 -999 0.049308 0.257143 -1.035392
2009-04-30 12:28:39 51°9.664 2°37.673 -999 0.038606 0.200532 -1.035392
2009-04-30 12:29:39 51°9.73 2°37.937 -999 0.039223 0.20373 -1.070216
2009-04-30 12:30:39 51°9.799 2°38.201 -999 0.039841 0.20703 -1.035392
2009-04-30 12:31:39 51°9.867 2°38.465 -999 0.038709 0.20107 -1.035392
2009-04-30 12:32:39 51°9.933 2°38.732 -999 0.038606 0.200558 -1.035392
2009-04-30 12:33:39 51°9.999 2°38.997 -999 0.035621 0.184832 -1.035392
2009-04-30 12:34:39 51°10.068 2°39.258 -999 0.03768 0.195644 -1.035392
2009-04-30 12:35:39 51°10.137 2°39.519 -999 0.036959 0.191858 -1.035392
2009-04-30 12:36:39 51°10.205 2°39.782 -999 0.045809 0.238544 -1.035392
2009-04-30 12:37:39 51°10.276 2°40.046 -999 0.037782 0.196185 -1.035392
2009-04-30 12:38:39 51°10.343 2°40.313 -999 0.0384 0.199444 -1.035392
2009-04-30 12:39:39 51°10.402 2°40.592 -999 0.042207 0.219514 -1.035392
2009-04-30 12:40:39 51°10.461 2°40.871 -999 0.037577 0.195104 -1.035392
2009-04-30 12:41:39 51°10.518 2°41.148 -999 0.051675 0.269926 -1.035392
2009-04-30 12:42:39 51°10.519 2°41.437 -999 0.048794 0.254567 -1.035392
2009-04-30 12:43:39 51°10.484 2°41.73 -999 0.036033 0.187083 -1.035392
2009-04-30 12:44:39 51°10.464 2°42.02 -999 0.038297 0.198984 -1.035392
2009-04-30 12:45:39 51°10.529 2°42.282 -999 0.04725 0.246335 -1.035392
2009-04-30 12:46:39 51°10.617 2°42.533 -999 0.040355 0.209846 -1.070216
2009-04-30 12:47:39 51°10.701 2°42.794 -999 0.039635 0.206083 -1.035392
2009-04-30 12:48:39 51°10.78 2°43.057 -999 0.04231 0.220151 -1.035392
2009-04-30 12:49:39 51°10.857 2°43.32 -999 0.035519 0.184409 -1.035392
2009-04-30 12:50:39 51°10.932 2°43.585 -999 0.036753 0.190828 -1.035392
2009-04-30 12:51:39 51°11.007 2°43.852 -999 0.045809 0.238842 -1.035392
2009-04-30 12:52:39 51°11.08 2°44.123 -999 0.038194 0.198446 -1.035392
2009-04-30 12:53:39 51°11.158 2°44.386 -999 0.034489 0.179102 -1.035392
2009-04-30 12:54:39 51°11.23 2°44.651 -999 0.039017 0.202746 -1.035392
2009-04-30 12:55:39 51°11.291 2°44.922 -999 0.039223 0.203813 -1.035392
2009-04-30 12:56:39 51°11.365 2°45.187 -999 0.036342 0.188734 -1.035392
2009-04-30 12:57:39 51°11.444 2°45.447 -999 0.03912 0.203314 -1.035392
2009-04-30 12:58:39 51°11.526 2°45.701 -999 0.040664 0.211485 -1.035392
2009-04-30 12:59:39 51°11.606 2°45.957 -999 0.035827 0.186047 -1.035392
2009-04-30 13:00:39 51°11.685 2°46.209 -999 0.045809 0.238661 -1.035392
2009-04-30 13:01:39 51°11.762 2°46.464 -999 0.040458 0.21042 -1.035392
2009-04-30 13:02:39 51°11.843 2°46.714 -999 0.035724 0.185466 -1.035392
2009-04-30 13:03:39 51°11.927 2°46.961 -999 0.042722 0.222327 -1.035392
2009-04-30 13:04:39 51°12.009 2°47.212 -999 0.043648 0.227224 -1.035392
2009-04-30 13:05:39 51°12.088 2°47.466 -999 0.039738 0.206525 -1.035392
2009-04-30 13:06:39 51°12.169 2°47.72 -999 0.041487 0.215728 -1.035392
2009-04-30 13:07:39 51°12.256 2°47.967 -999 0.039223 0.203786 -1.035392
2009-04-30 13:08:39 51°12.343 2°48.213 -999 0.042002 0.218448 -1.035392
2009-04-30 13:09:39 51°12.426 2°48.464 -999 0.03912 0.203222 -1.035392
2009-04-30 13:10:39 51°12.514 2°48.71 -999 0.039429 0.20487 -1.035392
2009-04-30 13:11:39 51°12.604 2°48.959 -999 0.03912 0.20338 -1.035392
2009-04-30 13:12:39 51°12.689 2°49.221 -999 0.035518 0.184299 -1.035392
2009-04-30 13:13:39 51°12.779 2°49.471 -999 0.035004 0.181646 -1.035392
2009-04-30 13:14:39 51°12.867 2°49.724 -999 0.040252 0.209263 -1.035392
2009-04-30 13:15:39 51°12.951 2°49.977 -999 0.034387 0.178427 -1.035392
2009-04-30 13:16:39 51°13.043 2°50.222 -999 0.035004 0.181631 -1.035392
2009-04-30 13:17:39 51°13.13 2°50.473 -999 0.042207 0.219518 -1.035392
2009-04-30 13:18:39 51°13.216 2°50.726 -999 0.039738 0.206518 -1.035392
2009-04-30 13:19:39 51°13.305 2°50.975 -999 0.039017 0.202707 -1.035392
2009-04-30 13:20:39 51°13.395 2°51.223 -999 0.034387 0.178384 -1.035392
2009-04-30 13:21:39 51°13.488 2°51.467 -999 0.036548 0.189682 -1.035392
2009-04-30 13:22:39 51°13.584 2°51.71 -999 0.037165 0.192842 -1.035392
2009-04-30 13:23:39 51°13.677 2°51.955 -999 0.038091 0.197796 -1.035392
2009-04-30 13:24:39 51°13.77 2°52.201 -999 0.039223 0.203704 -1.035392
2009-04-30 13:25:39 51°13.861 2°52.448 -999 0.038503 0.199946 -1.035392
2009-04-30 13:26:39 51°13.953 2°52.695 -999 0.035621 0.184808 -1.035392
2009-04-30 13:27:39 51°14.043 2°52.946 -999 0.035416 0.183693 -1.035392
2009-04-30 13:28:39 51°14.133 2°53.198 -999 0.037782 0.196121 -1.035392
2009-04-30 13:29:39 51°14.215 2°53.454 -999 0.034798 0.180497 -1.035392
2009-04-30 13:30:39 51°14.295 2°53.709 -999 0.037062 0.192398 -1.035392
2009-04-30 13:31:39 51°14.362 2°53.973 -999 0.04159 0.216232 -1.035392
2009-04-30 13:32:39 51°14.4 2°54.254 -999 0.036856 0.191282 -1.035392
2009-04-30 13:33:39 51°14.416 2°54.544 -999 0.043339 0.225469 -1.035392
2009-04-30 13:34:39 51°14.392 2°54.836 -999 0.043545 0.22665 -1.035392
2009-04-30 13:35:39 51°14.323 2°55.116 -999 0.03665 0.190203 -1.035392
2009-04-30 13:36:40 51°14.2 2°55.332 -999 0.041384 0.215041 -1.035392
2009-04-30 13:37:43 51°14.059 2°55.464 -999 0.039841 0.20699 -1.035392
2009-04-30 13:38:42 51°13.956 2°55.555 -999 0.041487 0.215661 -1.035392
2009-04-30 13:39:43 51°13.853 2°55.628 -999 0.040046 0.208121 -1.035392
2009-04-30 13:40:43 51°13.767 2°55.688 -999 0.03912 0.203261 -1.035392
2009-04-30 13:41:41 51°13.721 2°55.758 -999 0.039223 0.2038 -1.035392
2009-04-30 13:42:39 51°13.69 2°55.833 -999 0.038297 0.198929 -1.035392
2009-04-30 13:43:39 51°13.673 2°55.909 -999 0.042002 0.218452 -1.035392
2009-04-30 13:44:39 51°13.665 2°55.95 -999 0.041281 0.214635 -1.035392
2009-04-30 13:45:39 51°13.663 2°55.958 -999 0.042413 0.220605 -1.035392